sensor_id;sensor_type;location;lat;lon;timestamp;pressure;altitude;pressure_sealevel;temperature;humidity
50087;BME280;35967;50.718;7.050;2023-01-28T00:04:12;101896.97;;;3.72;84.26
50087;BME280;35967;50.718;7.050;2023-01-28T00:14:17;101889.78;;;3.57;84.34
50087;BME280;35967;50.718;7.050;2023-01-28T00:24:20;101884.06;;;3.64;84.26
50087;BME280;35967;50.718;7.050;2023-01-28T00:34:25;101883.16;;;3.63;83.80
50087;BME280;35967;50.718;7.050;2023-01-28T00:44:28;101875.69;;;3.70;83.44
50087;BME280;35967;50.718;7.050;2023-01-28T00:54:33;101876.06;;;3.52;82.91
50087;BME280;35967;50.718;7.050;2023-01-28T01:04:36;101886.00;;;3.74;81.92
50087;BME280;35967;50.718;7.050;2023-01-28T01:14:41;101879.94;;;3.69;81.90
50087;BME280;35967;50.718;7.050;2023-01-28T01:24:46;101875.41;;;3.59;82.08
50087;BME280;35967;50.718;7.050;2023-01-28T01:34:51;101877.81;;;3.53;82.91
50087;BME280;35967;50.718;7.050;2023-01-28T01:44:56;101876.97;;;3.54;83.14
50087;BME280;35967;50.718;7.050;2023-01-28T01:55:28;101875.47;;;3.28;83.36
50087;BME280;35967;50.718;7.050;2023-01-28T02:05:33;101882.06;;;3.22;83.28
50087;BME280;35967;50.718;7.050;2023-01-28T02:15:38;101893.47;;;3.06;84.09
50087;BME280;35967;50.718;7.050;2023-01-28T02:36:35;101901.16;;;3.07;84.28
50087;BME280;35967;50.718;7.050;2023-01-28T02:46:44;101900.09;;;3.00;83.23
50087;BME280;35967;50.718;7.050;2023-01-28T02:57:16;101912.66;;;2.94;83.72
50087;BME280;35967;50.718;7.050;2023-01-28T03:07:22;101909.06;;;2.88;84.38
50087;BME280;35967;50.718;7.050;2023-01-28T03:17:31;101925.31;;;2.93;84.01
50087;BME280;35967;50.718;7.050;2023-01-28T03:27:59;101940.19;;;3.09;83.35
50087;BME280;35967;50.718;7.050;2023-01-28T03:38:22;101945.13;;;3.03;83.10
50087;BME280;35967;50.718;7.050;2023-01-28T03:48:35;101953.78;;;3.08;82.65
50087;BME280;35967;50.718;7.050;2023-01-28T03:58:42;101954.75;;;3.13;83.37
50087;BME280;35967;50.718;7.050;2023-01-28T04:08:54;101962.06;;;3.03;83.65
50087;BME280;35967;50.718;7.050;2023-01-28T04:19:31;101964.34;;;2.93;84.34
50087;BME280;35967;50.718;7.050;2023-01-28T04:29:40;101968.66;;;2.96;84.21
50087;BME280;35967;50.718;7.050;2023-01-28T04:40:05;101974.06;;;2.79;84.38
50087;BME280;35967;50.718;7.050;2023-01-28T04:50:29;101978.94;;;2.72;83.90
50087;BME280;35967;50.718;7.050;2023-01-28T05:00:52;101991.22;;;2.85;84.38
50087;BME280;35967;50.718;7.050;2023-01-28T05:10:56;101991.38;;;2.64;82.75
50087;BME280;35967;50.718;7.050;2023-01-28T05:21:00;101994.34;;;2.50;83.08
50087;BME280;35967;50.718;7.050;2023-01-28T05:31:06;101993.97;;;2.65;82.30
50087;BME280;35967;50.718;7.050;2023-01-28T05:41:10;102003.56;;;2.23;81.43
50087;BME280;35967;50.718;7.050;2023-01-28T05:51:16;102005.06;;;2.42;80.84
50087;BME280;35967;50.718;7.050;2023-01-28T06:01:28;102014.81;;;2.29;81.00
50087;BME280;35967;50.718;7.050;2023-01-28T06:11:32;102024.63;;;2.18;80.84
50087;BME280;35967;50.718;7.050;2023-01-28T06:21:39;102033.56;;;2.33;80.50
50087;BME280;35967;50.718;7.050;2023-01-28T06:31:45;102042.66;;;2.26;80.22
50087;BME280;35967;50.718;7.050;2023-01-28T06:41:49;102045.53;;;2.11;80.32
50087;BME280;35967;50.718;7.050;2023-01-28T06:51:52;102046.88;;;2.26;80.21
50087;BME280;35967;50.718;7.050;2023-01-28T07:01:57;102054.28;;;2.44;79.82
50087;BME280;35967;50.718;7.050;2023-01-28T07:12:00;102060.44;;;2.26;80.12
50087;BME280;35967;50.718;7.050;2023-01-28T07:22:07;102056.00;;;2.45;79.97
50087;BME280;35967;50.718;7.050;2023-01-28T07:32:11;102056.66;;;2.39;80.03
50087;BME280;35967;50.718;7.050;2023-01-28T07:42:15;102056.94;;;2.47;79.49
50087;BME280;35967;50.718;7.050;2023-01-28T07:52:20;102084.44;;;2.34;80.22
50087;BME280;35967;50.718;7.050;2023-01-28T08:02:28;102082.59;;;2.55;79.58
50087;BME280;35967;50.718;7.050;2023-01-28T08:12:31;102085.69;;;2.46;79.30
50087;BME280;35967;50.718;7.050;2023-01-28T08:22:35;102085.13;;;2.55;78.53
50087;BME280;35967;50.718;7.050;2023-01-28T08:32:38;102083.69;;;2.37;78.01
50087;BME280;35967;50.718;7.050;2023-01-28T08:42:47;102091.81;;;2.27;79.27
50087;BME280;35967;50.718;7.050;2023-01-28T08:52:54;102102.31;;;2.36;79.71
50087;BME280;35967;50.718;7.050;2023-01-28T09:02:59;102107.63;;;2.44;78.72
50087;BME280;35967;50.718;7.050;2023-01-28T09:13:05;102115.09;;;2.39;79.27
50087;BME280;35967;50.718;7.050;2023-01-28T09:23:12;102111.72;;;2.39;77.68
50087;BME280;35967;50.718;7.050;2023-01-28T09:33:15;102137.41;;;2.72;76.93
50087;BME280;35967;50.718;7.050;2023-01-28T09:43:37;102153.94;;;2.35;76.46
50087;BME280;35967;50.718;7.050;2023-01-28T09:53:47;102170.69;;;2.54;76.62
50087;BME280;35967;50.718;7.050;2023-01-28T10:03:58;102181.50;;;2.48;75.78
50087;BME280;35967;50.718;7.050;2023-01-28T10:14:09;102188.06;;;2.66;75.18
50087;BME280;35967;50.718;7.050;2023-01-28T10:24:16;102188.56;;;2.33;74.12
50087;BME280;35967;50.718;7.050;2023-01-28T10:34:22;102183.91;;;2.21;73.92
50087;BME280;35967;50.718;7.050;2023-01-28T10:44:30;102180.66;;;2.25;73.73
50087;BME280;35967;50.718;7.050;2023-01-28T10:54:34;102187.44;;;2.25;73.93
50087;BME280;35967;50.718;7.050;2023-01-28T11:04:39;102169.44;;;2.18;73.29
50087;BME280;35967;50.718;7.050;2023-01-28T11:14:49;102177.06;;;2.43;73.15
50087;BME280;35967;50.718;7.050;2023-01-28T11:24:54;102175.63;;;2.49;73.15
50087;BME280;35967;50.718;7.050;2023-01-28T11:34:57;102170.31;;;2.43;71.68
50087;BME280;35967;50.718;7.050;2023-01-28T11:45:04;102166.53;;;2.56;72.01
50087;BME280;35967;50.718;7.050;2023-01-28T11:55:26;102170.97;;;2.38;70.90
50087;BME280;35967;50.718;7.050;2023-01-28T12:05:45;102175.75;;;2.30;70.33
50087;BME280;35967;50.718;7.050;2023-01-28T12:16:11;102161.06;;;2.45;70.69
50087;BME280;35967;50.718;7.050;2023-01-28T12:26:24;102154.34;;;2.23;69.28
50087;BME280;35967;50.718;7.050;2023-01-28T12:36:38;102158.16;;;2.12;68.63
50087;BME280;35967;50.718;7.050;2023-01-28T12:46:49;102147.63;;;2.25;68.09
50087;BME280;35967;50.718;7.050;2023-01-28T12:56:54;102151.75;;;2.21;67.69
50087;BME280;35967;50.718;7.050;2023-01-28T13:07:02;102150.34;;;2.30;67.59
50087;BME280;35967;50.718;7.050;2023-01-28T13:17:24;102149.28;;;2.23;66.56
50087;BME280;35967;50.718;7.050;2023-01-28T13:27:29;102135.44;;;2.39;66.70
50087;BME280;35967;50.718;7.050;2023-01-28T13:37:35;102122.84;;;2.42;66.18
50087;BME280;35967;50.718;7.050;2023-01-28T13:47:43;102116.13;;;2.68;67.44
50087;BME280;35967;50.718;7.050;2023-01-28T13:58:20;102093.69;;;2.32;65.35
50087;BME280;35967;50.718;7.050;2023-01-28T14:08:59;102053.41;;;2.43;63.91
50087;BME280;35967;50.718;7.050;2023-01-28T14:19:09;102096.06;;;2.52;62.40
50087;BME280;35967;50.718;7.050;2023-01-28T14:29:22;102105.66;;;2.35;64.27
50087;BME280;35967;50.718;7.050;2023-01-28T14:39:30;102117.75;;;2.42;65.13
50087;BME280;35967;50.718;7.050;2023-01-28T14:49:43;102149.19;;;2.44;65.27
50087;BME280;35967;50.718;7.050;2023-01-28T14:59:51;102135.13;;;2.54;65.62
50087;BME280;35967;50.718;7.050;2023-01-28T15:10:00;102122.88;;;2.68;66.03
50087;BME280;35967;50.718;7.050;2023-01-28T15:20:06;102135.44;;;2.63;65.88
50087;BME280;35967;50.718;7.050;2023-01-28T15:30:20;102114.88;;;2.57;64.94
50087;BME280;35967;50.718;7.050;2023-01-28T15:40:24;102112.34;;;2.33;66.61
50087;BME280;35967;50.718;7.050;2023-01-28T15:50:29;102112.06;;;2.25;67.18
50087;BME280;35967;50.718;7.050;2023-01-28T16:00:33;102088.81;;;1.90;67.08
50087;BME280;35967;50.718;7.050;2023-01-28T16:10:37;102109.63;;;2.04;68.72
50087;BME280;35967;50.718;7.050;2023-01-28T16:20:45;102118.13;;;1.82;69.00
50087;BME280;35967;50.718;7.050;2023-01-28T16:30:52;102119.28;;;1.67;69.70
50087;BME280;35967;50.718;7.050;2023-01-28T16:40:57;102128.41;;;1.41;70.79
50087;BME280;35967;50.718;7.050;2023-01-28T16:51:02;102149.81;;;1.48;71.29
50087;BME280;35967;50.718;7.050;2023-01-28T17:01:06;102182.94;;;1.51;71.83
50087;BME280;35967;50.718;7.050;2023-01-28T17:11:11;102223.25;;;1.45;72.66
50087;BME280;35967;50.718;7.050;2023-01-28T17:21:14;102245.69;;;1.55;73.14
50087;BME280;35967;50.718;7.050;2023-01-28T17:31:19;102240.13;;;1.64;72.66
50087;BME280;35967;50.718;7.050;2023-01-28T17:41:23;102240.25;;;1.67;73.02
50087;BME280;35967;50.718;7.050;2023-01-28T17:51:27;102214.38;;;1.54;72.94
50087;BME280;35967;50.718;7.050;2023-01-28T18:01:33;102206.69;;;1.53;71.76
50087;BME280;35967;50.718;7.050;2023-01-28T18:11:39;102196.47;;;1.51;72.04
50087;BME280;35967;50.718;7.050;2023-01-28T18:21:43;102215.66;;;1.45;72.13
50087;BME280;35967;50.718;7.050;2023-01-28T18:31:57;102254.00;;;1.51;72.24
50087;BME280;35967;50.718;7.050;2023-01-28T18:42:01;102265.75;;;1.49;72.69
50087;BME280;35967;50.718;7.050;2023-01-28T18:52:05;102269.13;;;1.49;74.28
50087;BME280;35967;50.718;7.050;2023-01-28T19:02:12;102266.16;;;1.38;73.87
50087;BME280;35967;50.718;7.050;2023-01-28T19:12:17;102286.78;;;1.46;74.75
50087;BME280;35967;50.718;7.050;2023-01-28T19:22:23;102279.78;;;1.40;74.38
50087;BME280;35967;50.718;7.050;2023-01-28T19:32:27;102275.25;;;1.33;75.06
50087;BME280;35967;50.718;7.050;2023-01-28T19:42:31;102265.72;;;1.28;74.82
50087;BME280;35967;50.718;7.050;2023-01-28T19:52:36;102278.59;;;1.32;74.48
50087;BME280;35967;50.718;7.050;2023-01-28T20:02:39;102278.00;;;1.38;73.94
50087;BME280;35967;50.718;7.050;2023-01-28T20:12:44;102284.16;;;1.45;74.93
50087;BME280;35967;50.718;7.050;2023-01-28T20:22:49;102289.44;;;1.28;75.25
50087;BME280;35967;50.718;7.050;2023-01-28T20:32:53;102300.38;;;1.27;74.68
50087;BME280;35967;50.718;7.050;2023-01-28T20:42:56;102280.78;;;1.24;74.55
50087;BME280;35967;50.718;7.050;2023-01-28T20:53:01;102284.47;;;1.31;74.42
50087;BME280;35967;50.718;7.050;2023-01-28T21:03:05;102280.53;;;1.38;74.89
50087;BME280;35967;50.718;7.050;2023-01-28T21:13:11;102284.41;;;1.30;74.95
50087;BME280;35967;50.718;7.050;2023-01-28T21:23:14;102278.53;;;1.31;74.17
50087;BME280;35967;50.718;7.050;2023-01-28T21:33:19;102269.03;;;1.26;74.69
50087;BME280;35967;50.718;7.050;2023-01-28T21:43:26;102246.09;;;1.23;74.91
50087;BME280;35967;50.718;7.050;2023-01-28T21:53:30;102238.34;;;1.20;74.34
50087;BME280;35967;50.718;7.050;2023-01-28T22:03:33;102249.34;;;1.21;73.85
50087;BME280;35967;50.718;7.050;2023-01-28T22:13:38;102234.56;;;1.10;73.45
50087;BME280;35967;50.718;7.050;2023-01-28T22:23:41;102225.03;;;1.05;73.51
50087;BME280;35967;50.718;7.050;2023-01-28T22:33:47;102214.75;;;1.02;74.48
50087;BME280;35967;50.718;7.050;2023-01-28T22:43:51;102222.16;;;0.97;73.78
50087;BME280;35967;50.718;7.050;2023-01-28T22:53:56;102227.97;;;0.55;74.17
50087;BME280;35967;50.718;7.050;2023-01-28T23:03:59;102257.09;;;0.65;74.92
50087;BME280;35967;50.718;7.050;2023-01-28T23:14:04;102248.44;;;0.60;75.04
50087;BME280;35967;50.718;7.050;2023-01-28T23:24:26;102264.91;;;0.50;75.99
50087;BME280;35967;50.718;7.050;2023-01-28T23:34:33;102269.47;;;0.39;75.86
50087;BME280;35967;50.718;7.050;2023-01-28T23:44:36;102257.31;;;0.14;75.42
50087;BME280;35967;50.718;7.050;2023-01-28T23:54:42;102250.84;;;0.19;75.65
